Time;durP1;ratioP1;P1;durP2;ratioP2;P2;SDS_P1;SDS_P2;PMS_P1;PMS_P2;Temp;Humidity;BMP_temperature;BMP_pressure;BME280_temperature;BME280_humidity;BME280_pressure;Samples;Min_cycle;Max_cycle;Signal;HPM_P1;HPM_P2
2023/04/02 00:00:11;;;;;;;37.78;19.80;;;7.20;99.90;;;;;;4955233;29;20027;-77
2023/04/02 00:03:00;;;;;;;38.63;19.35;;;7.20;99.90;;;;;;4937862;28;20549;-77
2023/04/02 00:05:29;;;;;;;39.63;19.70;;;7.20;99.90;;;;;;4955228;29;20074;-78
2023/04/02 00:08:01;;;;;;;33.55;18.52;;;7.20;99.90;;;;;;4955061;28;20039;-78
2023/04/02 00:10:38;;;;;;;;;;;7.20;99.90;;;;;;4955533;29;20047;-78
2023/04/02 00:13:10;;;;;;;37.67;19.45;;;7.20;99.90;;;;;;4953864;28;19989;-77
2023/04/02 00:15:37;;;;;;;36.77;18.50;;;7.20;99.90;;;;;;4937787;29;20032;-78
2023/04/02 00:18:04;;;;;;;35.63;19.65;;;7.30;99.90;;;;;;4955001;28;20262;-78
2023/04/02 00:20:35;;;;;;;28.10;15.95;;;7.30;99.90;;;;;;4954990;29;20066;-78
2023/04/02 00:23:02;;;;;;;30.20;15.07;;;7.30;99.90;;;;;;4955199;28;20031;-77
2023/04/02 00:25:32;;;;;;;29.65;17.00;;;7.40;99.90;;;;;;4955170;29;20054;-78
2023/04/02 00:27:58;;;;;;;27.55;14.57;;;7.40;99.90;;;;;;4955301;28;20405;-78
2023/04/02 00:30:24;;;;;;;24.45;13.65;;;7.40;99.90;;;;;;4958851;29;20037;-77
2023/04/02 00:32:50;;;;;;;24.38;13.65;;;7.40;99.90;;;;;;4958968;28;20029;-78
2023/04/02 00:35:25;;;;;;;21.38;13.02;;;7.40;99.90;;;;;;4941584;29;20388;-78
2023/04/02 00:37:51;;;;;;;26.58;15.32;;;7.40;99.90;;;;;;4941436;29;20074;-78
2023/04/02 00:40:30;;;;;;;22.48;13.25;;;7.30;99.90;;;;;;4958673;29;20392;-77
2023/04/02 00:43:03;;;;;;;27.23;14.98;;;7.40;99.90;;;;;;4958805;28;20393;-77
2023/04/02 00:45:34;;;;;;;27.67;15.32;;;7.40;99.90;;;;;;4958579;29;20016;-78
2023/04/02 00:48:22;;;;;;;21.92;13.18;;;7.40;99.90;;;;;;4958494;28;20445;-77
2023/04/02 00:50:49;;;;;;;21.30;13.20;;;7.40;99.90;;;;;;4958497;29;20034;-78
2023/04/02 00:53:24;;;;;;;23.08;12.95;;;7.30;99.90;;;;;;4958484;28;20474;-79
2023/04/02 00:55:51;;;;;;;20.42;12.85;;;7.30;99.90;;;;;;4958395;29;20031;-78
2023/04/02 00:58:26;;;;;;;21.73;12.80;;;7.20;99.90;;;;;;4958278;28;20110;-79
2023/04/02 01:00:52;;;;;;;21.98;13.43;;;7.20;99.90;;;;;;4958307;29;20031;-78
2023/04/02 01:03:21;;;;;;;25.00;13.18;;;7.20;99.90;;;;;;4958233;28;20106;-78
2023/04/02 01:05:50;;;;;;;21.90;12.75;;;7.20;99.90;;;;;;4958332;29;20019;-78
2023/04/02 01:08:42;;;;;;;22.30;13.30;;;7.20;99.90;;;;;;4940930;29;20394;-78
2023/04/02 01:11:20;;;;;;;24.70;13.88;;;7.20;99.90;;;;;;4958230;29;20106;-78
2023/04/02 01:14:14;;;;;;;20.77;12.55;;;7.20;99.90;;;;;;4940968;29;20476;-78
2023/04/02 01:17:03;;;;;;;26.48;14.18;;;7.30;99.90;;;;;;4940823;29;20082;-78
2023/04/02 01:19:53;;;;;;;20.80;12.40;;;7.30;99.90;;;;;;4957734;28;20027;-78
2023/04/02 01:22:18;;;;;;;23.58;12.05;;;7.20;99.90;;;;;;4957968;29;20063;-78
2023/04/02 01:24:45;;;;;;;19.92;12.98;;;7.20;99.90;;;;;;4940654;29;20440;-77
2023/04/02 01:27:40;;;;;;;23.13;13.43;;;7.20;99.90;;;;;;4957659;29;20035;-78
2023/04/02 01:30:07;;;;;;;22.20;13.13;;;7.20;99.90;;;;;;4940652;29;20035;-78
2023/04/02 01:32:33;;;;;;;24.25;13.45;;;7.20;99.90;;;;;;4957673;28;20495;-77
2023/04/02 01:35:00;;;;;;;25.23;14.15;;;7.20;99.90;;;;;;4957695;29;20023;-77
2023/04/02 01:37:43;;;;;;;22.65;13.48;;;7.20;99.90;;;;;;4957638;29;20030;-78
2023/04/02 01:40:22;;;;;;;25.35;14.20;;;7.20;99.90;;;;;;4957434;28;20385;-78
2023/04/02 01:42:55;;;;;;;23.10;13.85;;;7.20;99.90;;;;;;4940426;28;20113;-79
2023/04/02 01:45:22;;;;;;;25.45;15.07;;;7.20;99.90;;;;;;4957614;29;20027;-78
2023/04/02 01:47:49;;;;;;;23.45;13.10;;;7.30;99.90;;;;;;4957521;28;20039;-78
2023/04/02 01:50:35;;;;;;;22.70;13.60;;;7.30;99.90;;;;;;4957474;29;20038;-78
2023/04/02 01:53:08;;;;;;;24.77;15.05;;;7.30;99.90;;;;;;4957428;28;20019;-78
2023/04/02 01:55:48;;;;;;;29.15;14.63;;;7.20;99.90;;;;;;4940125;29;20257;-78
2023/04/02 01:58:18;;;;;;;24.58;12.93;;;7.30;99.90;;;;;;4940045;29;20027;-77
2023/04/02 02:00:49;;;;;;;26.92;15.10;;;7.30;99.90;;;;;;4957326;29;20385;-79
2023/04/02 02:03:15;;;;;;;28.45;15.60;;;7.20;99.90;;;;;;4939962;29;20083;-77
2023/04/02 02:05:41;;;;;;;26.63;14.23;;;7.20;99.90;;;;;;4939913;29;20139;-77
2023/04/02 02:08:34;;;;;;;30.60;16.27;;;7.20;99.90;;;;;;4957065;28;20039;-77
2023/04/02 02:11:01;;;;;;;28.60;16.95;;;7.20;99.90;;;;;;4939835;29;20477;-78
2023/04/02 02:13:27;;;;;;;27.73;16.63;;;7.20;99.90;;;;;;4939836;29;20042;-78
2023/04/02 02:16:00;;;;;;;36.65;21.15;;;7.20;99.90;;;;;;4957000;29;20031;-78
2023/04/02 02:18:27;;;;;;;34.65;17.63;;;7.20;99.90;;;;;;4956860;28;20030;-77
2023/04/02 02:20:55;;;;;;;29.63;16.90;;;7.20;99.90;;;;;;4947982;28;20043;-78
2023/04/02 02:23:21;;;;;;;32.00;17.85;;;7.30;99.90;;;;;;4976018;28;20409;-77
2023/04/02 02:25:47;;;;;;;28.77;16.42;;;7.30;99.90;;;;;;4958946;28;20019;-78
2023/04/02 02:28:35;;;;;;;26.92;16.10;;;7.20;99.90;;;;;;4975884;28;20069;-78
2023/04/02 02:31:21;;;;;;;36.80;17.95;;;7.20;99.90;;;;;;4976124;28;20033;-77
2023/04/02 02:33:52;;;;;;;32.05;17.55;;;7.20;99.90;;;;;;4958599;28;20113;-77
2023/04/02 02:36:18;;;;;;;28.38;17.30;;;7.10;99.90;;;;;;4975898;28;20026;-78
2023/04/02 02:38:56;;;;;;;35.05;19.33;;;7.10;99.90;;;;;;4975779;28;20030;-79
2023/04/02 02:41:38;;;;;;;31.33;18.65;;;7.10;99.90;;;;;;4958414;28;20077;-79
2023/04/02 02:44:17;;;;;;;37.20;19.42;;;7.00;99.90;;;;;;4975951;28;20492;-77
2023/04/02 02:46:52;;;;;;;32.60;18.52;;;7.00;99.90;;;;;;4958277;28;20057;-78
2023/04/02 02:49:23;;;;;;;32.38;17.67;;;7.00;99.90;;;;;;4958321;28;20047;-79
2023/04/02 02:52:13;;;;;;;38.13;18.92;;;7.00;99.90;;;;;;4974960;28;20082;-77
2023/04/02 02:54:59;;;;;;;36.72;19.00;;;6.90;99.90;;;;;;4975602;28;20023;-77
2023/04/02 02:57:30;;;;;;;35.03;19.13;;;7.00;99.90;;;;;;4975506;28;20027;-79
2023/04/02 02:59:59;;;;;;;36.63;19.00;;;6.90;99.90;;;;;;4975557;28;20033;-77
2023/04/02 03:02:27;;;;;;;31.13;18.67;;;6.90;99.90;;;;;;4975215;28;20041;-78
2023/04/02 03:04:54;;;;;;;32.58;17.45;;;6.90;99.90;;;;;;4958103;28;20042;-77
2023/04/02 03:07:24;;;;;;;38.25;19.63;;;6.90;99.90;;;;;;4957770;28;20066;-78
2023/04/02 03:10:23;;;;;;;32.08;17.60;;;6.90;99.90;;;;;;4975382;28;20019;-78
2023/04/02 03:13:04;;;;;;;34.80;18.65;;;6.90;99.90;;;;;;4975286;28;20097;-78
2023/04/02 03:15:30;;;;;;;33.47;17.77;;;6.90;99.90;;;;;;4957837;28;20023;-79
2023/04/02 03:18:16;;;;;;;35.63;18.67;;;6.90;99.90;;;;;;4957876;28;20476;-77
2023/04/02 03:20:52;;;;;;;35.65;17.92;;;6.90;99.90;;;;;;4957138;28;20058;-78
2023/04/02 03:23:29;;;;;;;32.03;16.33;;;7.00;99.90;;;;;;4958012;28;20089;-77
2023/04/02 03:26:21;;;;;;;30.38;17.05;;;6.90;99.90;;;;;;4975114;28;20106;-77
2023/04/02 03:28:57;;;;;;;31.58;15.85;;;6.90;99.90;;;;;;4975174;28;20030;-78
2023/04/02 03:31:31;;;;;;;33.47;17.17;;;7.00;99.90;;;;;;4974974;28;20025;-79
2023/04/02 03:34:33;;;;;;;34.40;17.88;;;7.00;99.90;;;;;;4974900;28;20030;-78
2023/04/02 03:37:12;;;;;;;34.22;16.73;;;7.00;99.90;;;;;;4914925;29;20129;-78
2023/04/02 03:39:42;;;;;;;31.35;16.42;;;6.90;99.90;;;;;;4938385;29;20389;-79
2023/04/02 03:42:43;;;;;;;33.10;18.35;;;6.90;99.90;;;;;;4955578;29;20027;-78
2023/04/02 03:45:18;;;;;;;34.05;16.30;;;7.00;99.90;;;;;;4925029;29;20035;-78
2023/04/02 03:47:56;;;;;;;33.15;16.58;;;7.00;99.90;;;;;;4955545;28;20129;-78
2023/04/02 03:50:26;;;;;;;33.47;17.98;;;7.00;99.90;;;;;;4955430;29;20031;-79
2023/04/02 03:52:51;;;;;;;34.45;18.70;;;7.00;99.90;;;;;;4955386;28;20059;-77
2023/04/02 03:55:27;;;;;;;34.33;17.88;;;7.00;99.90;;;;;;4955388;29;20067;-77
2023/04/02 03:58:04;;;;;;;34.90;17.05;;;6.90;99.90;;;;;;4955410;28;20023;-78
2023/04/02 04:00:52;;;;;;;36.92;20.15;;;7.00;99.90;;;;;;4954100;29;20552;-79
2023/04/02 04:03:37;;;;;;;38.38;18.13;;;7.00;99.90;;;;;;4955181;28;20098;-79
2023/04/02 04:06:10;;;;;;;46.25;21.17;;;7.00;99.90;;;;;;4955269;29;20031;-78
2023/04/02 04:08:43;;;;;;;42.33;20.60;;;6.90;99.90;;;;;;4955301;28;20035;-78
2023/04/02 04:11:12;;;;;;;;;;;6.90;99.90;;;;;;4938394;29;20028;-78
2023/04/02 04:13:48;;;;;;;39.10;19.67;;;6.90;99.90;;;;;;4955160;28;19906;-78
2023/04/02 04:16:23;;;;;;;39.88;18.20;;;6.90;99.90;;;;;;4955171;29;20069;-77
2023/04/02 04:19:18;;;;;;;43.15;20.58;;;6.90;99.90;;;;;;4955185;28;20523;-77
2023/04/02 04:21:45;;;;;;;40.35;18.75;;;6.90;99.90;;;;;;4934574;29;20560;-77
2023/04/02 04:24:21;;;;;;;45.47;20.08;;;6.80;99.90;;;;;;4934553;29;20039;-78
2023/04/02 04:27:08;;;;;;;39.75;20.73;;;6.80;99.90;;;;;;4936050;29;20039;-79
2023/04/02 04:29:58;;;;;;;44.60;21.15;;;6.90;99.90;;;;;;4934580;29;20024;-78
2023/04/02 04:32:33;;;;;;;42.78;19.08;;;6.80;99.90;;;;;;4934834;29;20095;-78
2023/04/02 04:35:20;;;;;;;45.22;19.15;;;6.80;99.90;;;;;;4934638;29;20024;-77
2023/04/02 04:37:48;;;;;;;42.67;19.50;;;6.80;99.90;;;;;;4934558;29;20039;-77
2023/04/02 04:40:19;;;;;;;42.42;19.55;;;6.80;99.90;;;;;;4935717;29;20390;-78
2023/04/02 04:42:49;;;;;;;38.88;19.40;;;6.80;99.90;;;;;;4934526;29;20398;-78
2023/04/02 04:45:42;;;;;;;43.00;19.02;;;6.80;99.90;;;;;;4935728;29;20024;-78
2023/04/02 04:48:14;;;;;;;;;;;6.80;99.90;;;;;;4936219;29;20047;-79
2023/04/02 04:50:51;;;;;;;38.95;18.85;;;6.70;99.90;;;;;;4935718;29;19907;-77
2023/04/02 04:53:20;;;;;;;37.00;16.63;;;6.60;99.90;;;;;;4934325;29;20028;-77
2023/04/02 04:55:49;;;;;;;38.65;19.30;;;6.60;99.90;;;;;;4935568;29;20071;-78
2023/04/02 04:58:31;;;;;;;39.33;17.55;;;6.60;99.90;;;;;;4950278;28;20039;-78
2023/04/02 05:01:11;;;;;;;33.63;14.90;;;6.60;99.90;;;;;;4934413;29;20024;-78
2023/04/02 05:03:39;;;;;;;47.55;23.50;;;6.60;99.90;;;;;;4934384;29;20020;-78
2023/04/02 05:06:43;;;;;;;75.70;32.75;;;6.60;99.90;;;;;;4934250;29;20075;-77
2023/04/02 05:09:35;;;;;;;;;;;6.50;99.90;;;;;;4904056;29;20043;-78
2023/04/02 05:12:16;;;;;;;66.25;29.85;;;6.50;99.90;;;;;;4934345;29;19914;-77
2023/04/02 05:14:50;;;;;;;63.85;27.50;;;6.50;99.90;;;;;;4936795;29;20115;-77
2023/04/02 05:17:25;;;;;;;29.40;14.25;;;6.30;99.90;;;;;;4939026;29;20051;-77
2023/04/02 05:20:01;;;;;;;16.63;9.13;;;6.30;99.90;;;;;;4943045;29;20181;-78
2023/04/02 05:22:36;;;;;;;41.35;19.38;;;6.20;99.90;;;;;;4956602;28;20031;-79
2023/04/02 05:25:21;;;;;;;15.15;8.57;;;6.10;99.90;;;;;;4975983;28;20019;-78
2023/04/02 05:28:02;;;;;;;81.65;37.45;;;6.20;99.90;;;;;;4977121;28;20181;-78
2023/04/02 05:30:27;;;;;;;20.25;10.40;;;6.20;99.90;;;;;;4977183;28;20037;-79
2023/04/02 05:33:03;;;;;;;33.72;15.75;;;6.10;99.90;;;;;;4977119;28;20023;-78
2023/04/02 05:35:40;;;;;;;27.70;13.73;;;6.20;99.90;;;;;;4977141;28;20473;-78
2023/04/02 05:38:06;;;;;;;13.68;8.07;;;6.20;99.90;;;;;;4959697;28;20022;-78
2023/04/02 05:40:38;;;;;;;10.43;6.25;;;6.20;99.90;;;;;;4976875;28;20440;-77
2023/04/02 05:43:09;;;;;;;11.82;6.15;;;6.20;99.90;;;;;;4959602;28;20085;-77
2023/04/02 05:45:37;;;;;;;23.90;12.88;;;6.20;99.90;;;;;;4959506;28;20476;-78
2023/04/02 05:48:36;;;;;;;11.38;6.50;;;6.20;99.90;;;;;;4978883;28;20558;-78
2023/04/02 05:51:05;;;;;;;12.50;7.03;;;6.20;99.90;;;;;;4961339;28;20045;-77
2023/04/02 05:53:36;;;;;;;10.57;5.82;;;6.20;99.90;;;;;;4978344;28;20109;-77
2023/04/02 05:56:32;;;;;;;8.85;5.15;;;6.10;99.90;;;;;;4976624;28;20023;-77
2023/04/02 05:59:07;;;;;;;11.90;6.45;;;6.10;99.90;;;;;;4973684;28;20041;-78
2023/04/02 06:01:54;;;;;;;17.83;9.27;;;6.00;99.90;;;;;;4981839;28;20023;-78
2023/04/02 06:04:40;;;;;;;25.85;13.98;;;6.00;99.90;;;;;;4977857;28;20061;-78
2023/04/02 06:07:14;;;;;;;26.42;14.85;;;6.10;99.90;;;;;;4977817;28;20046;-78
2023/04/02 06:10:06;;;;;;;14.63;8.95;;;6.10;99.90;;;;;;4995716;28;20392;-78
2023/04/02 06:12:47;;;;;;;17.17;9.45;;;6.00;99.90;;;;;;4978248;28;20026;-77
2023/04/02 06:15:15;;;;;;;16.25;9.50;;;6.00;99.90;;;;;;4978389;28;20018;-78
2023/04/02 06:18:05;;;;;;;10.02;6.10;;;6.00;99.90;;;;;;4978179;28;20035;-77
2023/04/02 06:20:31;;;;;;;16.20;9.93;;;6.00;99.90;;;;;;4977986;28;20408;-78
2023/04/02 06:23:02;;;;;;;12.38;8.02;;;5.90;99.90;;;;;;4995622;28;20022;-78
2023/04/02 06:25:32;;;;;;;12.77;7.93;;;5.90;99.90;;;;;;4993661;28;20034;-78
2023/04/02 06:28:00;;;;;;;15.65;7.90;;;5.90;99.90;;;;;;4995186;28;20030;-77
2023/04/02 06:30:39;;;;;;;9.52;5.50;;;5.90;99.90;;;;;;4995420;28;20030;-78
2023/04/02 06:33:05;;;;;;;9.05;6.45;;;5.80;99.90;;;;;;4980085;28;20023;-78
2023/04/02 06:35:33;;;;;;;9.63;6.53;;;5.70;99.90;;;;;;4975643;28;20362;-78
2023/04/02 06:38:02;;;;;;;12.98;7.85;;;5.70;99.90;;;;;;4975648;28;20023;-78
2023/04/02 06:40:43;;;;;;;19.10;11.15;;;5.70;99.90;;;;;;4975697;28;20078;-78
2023/04/02 06:43:32;;;;;;;28.05;18.15;;;5.70;99.90;;;;;;4975862;28;20027;-78
2023/04/02 06:46:01;;;;;;;25.25;14.80;;;5.60;99.90;;;;;;4958687;28;20031;-78
2023/04/02 06:48:30;;;;;;;9.32;7.80;;;5.60;99.90;;;;;;4975754;28;20031;-78
2023/04/02 06:51:11;;;;;;;8.77;7.88;;;5.60;99.90;;;;;;4975483;28;20023;-78
2023/04/02 06:53:48;;;;;;;6.03;4.80;;;5.50;99.90;;;;;;4974091;28;20027;-77
2023/04/02 06:56:39;;;;;;;5.28;4.47;;;5.30;99.90;;;;;;4966016;28;20026;-77
2023/04/02 06:59:06;;;;;;;4.22;3.83;;;5.30;99.90;;;;;;4981412;28;20041;-77
2023/04/02 07:01:37;;;;;;;6.72;5.40;;;5.20;99.90;;;;;;4983790;28;20023;-78
2023/04/02 07:04:03;;;;;;;6.45;4.45;;;5.20;99.90;;;;;;4977308;28;20546;-77
2023/04/02 07:06:29;;;;;;;4.22;3.17;;;5.00;99.90;;;;;;4994558;28;20026;-77
2023/04/02 07:08:55;;;;;;;4.28;3.00;;;5.00;99.90;;;;;;4977305;28;20034;-78
2023/04/02 07:11:21;;;;;;;5.25;4.13;;;4.90;99.90;;;;;;4977172;28;20419;-77
2023/04/02 07:13:48;;;;;;;3.20;2.80;;;4.90;99.90;;;;;;4994658;28;20052;-78
2023/04/02 07:16:18;;;;;;;6.47;4.53;;;4.80;99.90;;;;;;4994600;28;20023;-77
2023/04/02 07:18:44;;;;;;;3.35;3.05;;;4.80;99.90;;;;;;4994467;28;20026;-78
2023/04/02 07:21:10;;;;;;;7.15;5.10;;;4.80;99.90;;;;;;4994595;28;20154;-77
2023/04/02 07:23:36;;;;;;;25.90;15.77;;;4.90;99.90;;;;;;4994399;28;20101;-77
2023/04/02 07:26:03;;;;;;;25.90;19.33;;;4.80;99.90;;;;;;4976964;28;20022;-77
2023/04/02 07:28:28;;;;;;;34.03;23.45;;;4.70;99.90;;;;;;4994206;28;20480;-78
2023/04/02 07:30:55;;;;;;;51.47;34.00;;;4.70;99.90;;;;;;4994324;28;20110;-78
2023/04/02 07:33:24;;;;;;;90.82;61.13;;;4.60;99.90;;;;;;4979558;28;20031;-78
2023/04/02 07:35:52;;;;;;;26.88;15.63;;;4.50;99.90;;;;;;4974618;28;20033;-79
2023/04/02 07:38:18;;;;;;;17.20;9.00;;;4.30;99.90;;;;;;4975011;28;20469;-78
2023/04/02 07:40:44;;;;;;;61.47;27.00;;;4.20;99.90;;;;;;4976749;28;20095;-77
2023/04/02 07:43:10;;;;;;;8.02;4.82;;;4.10;99.90;;;;;;4994201;28;20514;-78
2023/04/02 07:45:35;;;;;;;2.30;1.90;;;4.00;99.90;;;;;;4984034;28;20031;-78
2023/04/02 07:48:12;;;;;;;2.38;2.17;;;3.90;99.90;;;;;;4956993;28;20489;-78
2023/04/02 07:50:38;;;;;;;19.40;11.50;;;3.70;99.90;;;;;;4956864;28;20031;-77
2023/04/02 07:53:05;;;;;;;5.10;4.22;;;3.70;99.90;;;;;;4957106;28;20057;-77
2023/04/02 07:55:31;;;;;;;2.47;2.28;;;3.60;99.90;;;;;;4956400;28;20034;-78
2023/04/02 07:57:58;;;;;;;5.10;4.40;;;3.60;99.90;;;;;;4956981;28;20031;-78
2023/04/02 08:00:25;;;;;;;7.97;5.47;;;3.60;99.90;;;;;;4956746;28;20031;-78
2023/04/02 08:02:51;;;;;;;14.27;8.43;;;3.60;99.90;;;;;;4974223;28;20015;-78
2023/04/02 08:05:17;;;;;;;62.80;27.08;;;3.70;99.90;;;;;;4974101;28;20035;-78
2023/04/02 08:07:50;;;;;;;29.25;14.80;;;3.70;99.90;;;;;;4956754;28;20035;-77
2023/04/02 08:10:17;;;;;;;;;;;3.60;99.90;;;;;;4957258;28;20031;-77
2023/04/02 08:12:43;;;;;;;42.83;17.35;;;3.60;99.90;;;;;;4972789;28;19906;-78
2023/04/02 08:15:13;;;;;;;56.60;25.92;;;3.70;99.90;;;;;;4956776;28;20033;-77
2023/04/02 08:17:39;;;;;;;19.42;9.30;;;3.90;99.90;;;;;;4974052;28;20085;-78
2023/04/02 08:20:05;;;;;;;54.67;29.67;;;3.90;99.90;;;;;;4956528;28;20097;-77
2023/04/02 08:22:31;;;;;;;55.28;37.55;;;3.80;99.90;;;;;;4973832;28;20023;-77
2023/04/02 08:24:57;;;;;;;6.53;5.60;;;3.90;99.90;;;;;;4956665;28;20099;-77
2023/04/02 08:27:24;;;;;;;75.53;44.22;;;3.80;99.90;;;;;;4973990;28;20043;-77
2023/04/02 08:29:50;;;;;;;7.40;4.57;;;3.80;99.90;;;;;;4974054;28;20027;-77
2023/04/02 08:32:15;;;;;;;6.25;4.80;;;3.80;99.90;;;;;;4952246;29;20035;-77
2023/04/02 08:34:45;;;;;;;117.00;50.60;;;3.80;99.90;;;;;;4953231;28;20466;-77
2023/04/02 08:37:12;;;;;;;6.90;5.97;;;3.90;99.90;;;;;;4969212;28;20110;-77
2023/04/02 08:39:38;;;;;;;102.82;46.25;;;3.80;99.90;;;;;;4954565;28;20088;-77
2023/04/02 08:42:23;;;;;;;31.02;15.73;;;3.90;99.90;;;;;;4957792;28;20026;-77
2023/04/02 08:45:13;;;;;;;20.98;11.57;;;4.00;99.90;;;;;;4957342;28;20093;-77
2023/04/02 08:47:42;;;;;;;7.13;5.47;;;4.00;99.90;;;;;;4971299;28;20039;-77
2023/04/02 08:50:24;;;;;;;117.30;60.33;;;4.00;99.90;;;;;;4980910;28;20021;-77
2023/04/02 08:52:51;;;;;;;93.07;51.92;;;4.20;99.90;;;;;;4977505;28;20480;-78
2023/04/02 08:55:31;;;;;;;92.43;64.13;;;4.20;99.90;;;;;;4959943;28;20433;-77
2023/04/02 08:58:04;;;;;;;39.58;30.42;;;4.30;99.90;;;;;;4963268;28;20497;-77
2023/04/02 09:00:40;;;;;;;190.25;118.60;;;4.30;99.90;;;;;;4957899;28;20056;-78
2023/04/02 09:03:12;;;;;;;121.18;66.05;;;4.00;99.90;;;;;;4958230;28;20035;-77
2023/04/02 09:05:41;;;;;;;174.32;80.63;;;4.10;99.90;;;;;;4975616;28;20380;-77
2023/04/02 09:08:17;;;;;;;99.60;49.75;;;4.10;99.90;;;;;;4980663;28;20169;-77
2023/04/02 09:11:02;;;;;;;78.25;32.28;;;4.00;99.90;;;;;;4975587;28;20023;-78
2023/04/02 09:13:30;;;;;;;19.30;9.48;;;3.90;99.90;;;;;;4977015;28;20050;-77
2023/04/02 09:16:13;;;;;;;212.60;91.30;;;3.90;99.90;;;;;;4976910;28;20018;-77
2023/04/02 09:18:39;;;;;;;129.10;59.97;;;3.90;99.90;;;;;;4959803;28;20026;-77
2023/04/02 09:21:20;;;;;;;67.53;31.25;;;3.80;99.90;;;;;;4981839;28;20053;-77
2023/04/02 09:23:47;;;;;;;110.10;52.92;;;3.70;99.90;;;;;;4960113;28;20084;-78
2023/04/02 09:26:26;;;;;;;139.30;61.42;;;3.60;99.90;;;;;;4960075;28;20054;-77
2023/04/02 09:28:58;;;;;;;26.80;13.30;;;3.50;99.90;;;;;;4978539;28;20165;-77
2023/04/02 09:31:48;;;;;;;13.43;8.38;;;3.50;99.90;;;;;;4976127;28;20101;-77
2023/04/02 09:34:32;;;;;;;53.47;28.85;;;3.50;99.90;;;;;;4958593;28;20035;-76
2023/04/02 09:37:24;;;;;;;128.43;70.35;;;3.70;99.90;;;;;;4976610;28;20029;-76
2023/04/02 09:39:50;;;;;;;89.13;51.67;;;3.80;99.90;;;;;;4959378;28;20027;-76
2023/04/02 09:42:28;;;;;;;12.13;7.57;;;3.80;99.90;;;;;;4959211;28;20533;-76
2023/04/02 09:45:16;;;;;;;16.40;9.07;;;3.70;99.90;;;;;;4959264;28;20030;-76
2023/04/02 09:47:42;;;;;;;37.42;22.48;;;3.70;99.90;;;;;;4976387;28;20070;-76
2023/04/02 09:50:20;;;;;;;60.05;33.42;;;3.80;99.90;;;;;;4976554;28;20515;-76
2023/04/02 09:52:46;;;;;;;44.83;22.48;;;3.70;99.90;;;;;;4976390;28;20082;-76
2023/04/02 09:55:15;;;;;;;5.20;4.03;;;3.60;99.90;;;;;;4976279;28;20050;-76
2023/04/02 09:57:41;;;;;;;43.15;24.35;;;3.60;99.90;;;;;;4958831;28;20563;-76
2023/04/02 10:00:13;;;;;;;124.07;67.28;;;3.70;99.90;;;;;;4958844;28;20370;-77
2023/04/02 10:02:40;;;;;;;128.52;73.38;;;3.70;99.90;;;;;;4976171;28;20038;-77
2023/04/02 10:05:16;;;;;;;31.67;19.50;;;3.90;99.90;;;;;;4976207;28;20026;-76
2023/04/02 10:07:44;;;;;;;75.90;45.20;;;3.90;99.90;;;;;;4976060;28;20496;-75
2023/04/02 10:10:38;;;;;;;39.30;23.00;;;3.90;99.90;;;;;;4958833;28;20397;-77
2023/04/02 10:13:21;;;;;;;;;;;3.80;99.90;;;;;;4976528;28;20035;-77
2023/04/02 10:15:53;;;;;;;108.43;69.65;;;3.80;99.90;;;;;;4976189;28;19917;-76
2023/04/02 10:18:24;;;;;;;22.08;15.77;;;3.70;99.90;;;;;;4975941;28;20058;-78
2023/04/02 10:20:52;;;;;;;23.42;15.45;;;3.80;99.90;;;;;;4975948;28;20126;-77
2023/04/02 10:23:18;;;;;;;14.40;10.48;;;3.80;99.90;;;;;;4958086;28;20122;-78
2023/04/02 10:25:54;;;;;;;33.95;20.10;;;3.90;99.90;;;;;;4958425;28;20019;-78
2023/04/02 10:28:32;;;;;;;33.20;20.90;;;4.00;99.90;;;;;;4958278;28;20582;-75
2023/04/02 10:31:03;;;;;;;15.90;10.27;;;4.00;99.90;;;;;;4975854;28;20038;-75
2023/04/02 10:33:39;;;;;;;17.73;10.77;;;3.90;99.90;;;;;;4975527;28;20027;-75
2023/04/02 10:36:05;;;;;;;78.95;51.75;;;4.00;99.90;;;;;;4975728;28;20388;-76
2023/04/02 10:38:42;;;;;;;47.17;34.83;;;4.00;99.90;;;;;;4958057;28;20126;-75
2023/04/02 10:41:21;;;;;;;8.80;6.75;;;4.00;99.90;;;;;;4958354;28;20038;-76
2023/04/02 10:44:17;;;;;;;6.30;5.03;;;4.10;99.90;;;;;;4975478;28;20470;-75
2023/04/02 10:47:29;;;;;;;15.68;11.52;;;4.00;99.90;;;;;;4975263;28;20114;-75
2023/04/02 10:50:08;;;;;;;52.03;36.80;;;4.00;99.90;;;;;;4955565;28;20041;-77
2023/04/02 10:52:40;;;;;;;9.60;5.95;;;4.20;99.90;;;;;;4957867;28;20037;-77
2023/04/02 10:55:19;;;;;;;5.55;4.55;;;4.20;99.90;;;;;;4973431;28;20019;-78
2023/04/02 10:57:45;;;;;;;27.63;22.33;;;4.20;99.90;;;;;;4967484;28;20027;-78
2023/04/02 11:00:14;;;;;;;22.30;17.92;;;4.10;99.90;;;;;;4973358;28;20019;-77
2023/04/02 11:02:51;;;;;;;21.42;18.58;;;3.90;99.90;;;;;;4969686;28;20057;-78
2023/04/02 11:05:51;;;;;;;13.32;10.77;;;3.90;99.90;;;;;;4972965;28;20027;-78
2023/04/02 11:08:25;;;;;;;20.20;17.73;;;4.00;99.90;;;;;;4938440;28;20047;-78
2023/04/02 11:11:02;;;;;;;10.13;5.75;;;4.00;99.90;;;;;;4973375;28;20019;-77
2023/04/02 11:13:38;;;;;;;12.30;8.73;;;3.90;99.90;;;;;;4956639;28;20478;-76
2023/04/02 11:16:04;;;;;;;12.10;7.57;;;3.90;99.90;;;;;;4957047;28;20101;-76
2023/04/02 11:18:34;;;;;;;9.63;7.25;;;3.90;99.90;;;;;;4956120;28;20460;-77
2023/04/02 11:21:23;;;;;;;11.85;10.43;;;4.00;99.90;;;;;;4957646;28;20054;-76
2023/04/02 11:24:02;;;;;;;8.85;6.95;;;4.00;99.90;;;;;;4949873;28;20042;-78
2023/04/02 11:26:30;;;;;;;18.75;15.18;;;4.00;99.90;;;;;;4938076;29;20544;-77
2023/04/02 11:29:14;;;;;;;8.93;7.97;;;4.00;99.90;;;;;;4972140;28;20043;-77
2023/04/02 11:31:41;;;;;;;6.50;5.40;;;3.90;99.90;;;;;;4957401;28;20039;-77
2023/04/02 11:34:12;;;;;;;21.00;15.63;;;3.90;99.90;;;;;;4974660;28;20411;-77
2023/04/02 11:36:53;;;;;;;14.60;10.98;;;3.80;99.90;;;;;;4973282;28;20034;-77
2023/04/02 11:39:48;;;;;;;8.32;6.57;;;3.80;99.90;;;;;;4973375;28;20023;-76
2023/04/02 11:42:24;;;;;;;10.25;7.43;;;3.70;99.90;;;;;;4973798;28;20358;-75
2023/04/02 11:44:51;;;;;;;12.90;10.48;;;3.80;99.90;;;;;;4973636;28;20078;-76
2023/04/02 11:47:28;;;;;;;14.35;12.07;;;3.90;99.90;;;;;;4970055;28;20500;-78
2023/04/02 11:49:54;;;;;;;17.52;14.32;;;3.80;99.90;;;;;;4971180;28;20041;-78
2023/04/02 11:52:22;;;;;;;10.70;7.72;;;3.80;99.90;;;;;;4973635;28;20030;-78
2023/04/02 11:55:16;;;;;;;14.40;10.50;;;3.90;99.90;;;;;;4973229;28;20099;-78
2023/04/02 11:57:48;;;;;;;14.88;9.15;;;4.00;99.90;;;;;;4970929;28;20022;-78
2023/04/02 12:00:32;;;;;;;6.03;5.35;;;3.80;99.90;;;;;;4973554;28;20110;-78
2023/04/02 12:03:31;;;;;;;11.30;8.13;;;3.80;99.90;;;;;;4968217;28;20077;-78
2023/04/02 12:06:24;;;;;;;13.85;9.98;;;3.80;99.90;;;;;;4956104;28;20023;-78
2023/04/02 12:09:11;;;;;;;12.40;9.30;;;4.00;99.90;;;;;;4973360;28;20038;-78
2023/04/02 12:11:39;;;;;;;22.85;16.92;;;4.00;99.90;;;;;;4972047;28;20023;-78
2023/04/02 12:14:29;;;;;;;9.10;7.85;;;4.00;99.90;;;;;;4973140;28;20038;-78
2023/04/02 12:16:56;;;;;;;15.32;12.55;;;3.90;99.90;;;;;;4955710;28;20113;-78
2023/04/02 12:19:23;;;;;;;5.93;4.57;;;4.00;99.90;;;;;;4955001;28;20110;-78
2023/04/02 12:21:52;;;;;;;9.73;7.13;;;3.90;99.90;;;;;;4973460;28;20027;-78
2023/04/02 12:24:23;;;;;;;8.60;6.82;;;4.00;99.90;;;;;;4957081;28;20089;-77
2023/04/02 12:27:07;;;;;;;37.42;27.85;;;4.10;99.90;;;;;;4977547;28;20038;-78
2023/04/02 12:29:33;;;;;;;9.48;6.22;;;4.20;99.90;;;;;;4977619;28;20388;-78
2023/04/02 12:31:59;;;;;;;14.10;10.68;;;4.00;99.90;;;;;;4977617;28;20023;-78
2023/04/02 12:34:28;;;;;;;14.60;10.98;;;4.10;99.90;;;;;;4977547;28;20023;-78
2023/04/02 12:37:01;;;;;;;7.97;6.78;;;4.10;99.90;;;;;;4977581;28;20030;-79
2023/04/02 12:39:28;;;;;;;13.80;9.75;;;4.10;99.90;;;;;;4977442;28;20081;-77
2023/04/02 12:41:54;;;;;;;9.75;8.68;;;4.00;99.90;;;;;;4960204;28;20050;-78
2023/04/02 12:44:23;;;;;;;14.75;11.88;;;3.90;99.90;;;;;;4959866;28;20018;-78
2023/04/02 12:46:50;;;;;;;14.50;12.27;;;4.10;99.90;;;;;;4959852;28;20041;-78
2023/04/02 12:49:35;;;;;;;11.18;9.68;;;4.00;99.90;;;;;;4984328;28;20034;-78
2023/04/02 12:52:21;;;;;;;7.88;7.07;;;4.00;99.90;;;;;;4993371;28;20038;-78
2023/04/02 12:54:52;;;;;;;8.52;5.93;;;4.00;99.90;;;;;;4959742;28;20427;-78
2023/04/02 12:57:27;;;;;;;9.60;6.63;;;4.00;99.90;;;;;;4959738;28;20117;-78
2023/04/02 13:00:23;;;;;;;14.18;9.48;;;4.00;99.90;;;;;;4977078;28;20085;-78
2023/04/02 13:03:02;;;;;;;32.97;24.13;;;4.10;99.90;;;;;;4977120;28;20027;-77
2023/04/02 13:05:40;;;;;;;7.35;5.53;;;4.20;99.90;;;;;;4959117;28;20063;-78
2023/04/02 13:08:15;;;;;;;19.50;15.15;;;4.10;99.90;;;;;;4956559;28;20036;-78
2023/04/02 13:10:42;;;;;;;13.32;10.75;;;4.10;99.90;;;;;;4957993;29;20034;-77
2023/04/02 13:13:20;;;;;;;13.15;10.52;;;4.00;99.90;;;;;;4956706;29;20035;-78
2023/04/02 13:16:13;;;;;;;16.75;12.38;;;3.90;99.90;;;;;;4956463;29;20035;-76
2023/04/02 13:18:40;;;;;;;11.07;8.55;;;3.90;99.90;;;;;;4957764;28;20065;-78
2023/04/02 13:21:15;;;;;;;8.63;6.25;;;3.90;99.90;;;;;;4959496;28;20059;-78